createdAt,value
2019-03-30T00:01:16.554Z,1.45
2019-03-30T00:03:47.198Z,1.39
2019-03-30T00:06:17.014Z,1.39
2019-03-30T00:08:47.301Z,1.34
2019-03-30T00:11:16.868Z,1.34
2019-03-30T00:13:47.074Z,1.27
2019-03-30T00:16:16.667Z,-144.16
2019-03-30T00:18:48.764Z,1.18
2019-03-30T00:21:19.378Z,1.18
2019-03-30T00:23:49.767Z,1.16
2019-03-30T00:26:20.252Z,1.16
2019-03-30T00:28:50.450Z,1.05
2019-03-30T00:31:19.886Z,1.05
2019-03-30T00:33:50.018Z,1.12
2019-03-30T00:36:19.515Z,1.12
2019-03-30T00:38:50.693Z,1.04
2019-03-30T00:41:20.178Z,1.04
2019-03-30T00:43:50.317Z,0.98
2019-03-30T00:46:19.802Z,0.98
2019-03-30T00:48:50.410Z,0.89
2019-03-30T00:51:19.905Z,0.89
2019-03-30T00:53:50.106Z,0.90
2019-03-30T00:56:19.636Z,0.90
2019-03-30T00:58:49.780Z,0.89
2019-03-30T01:01:19.311Z,0.89
2019-03-30T01:03:49.715Z,0.78
2019-03-30T01:06:19.199Z,0.78
2019-03-30T01:08:49.358Z,0.74
2019-03-30T01:11:21.115Z,0.74
2019-03-30T01:13:52.460Z,0.67
2019-03-30T01:16:21.946Z,0.67
2019-03-30T01:18:52.047Z,0.59
2019-03-30T01:21:22.487Z,0.59
2019-03-30T01:23:52.584Z,0.53
2019-03-30T01:26:22.050Z,0.53
2019-03-30T01:28:52.225Z,0.54
2019-03-30T01:31:21.692Z,0.54
2019-03-30T01:33:51.895Z,0.46
2019-03-30T01:36:21.448Z,0.46
2019-03-30T01:38:51.514Z,0.47
2019-03-30T01:41:20.959Z,0.47
2019-03-30T01:43:52.048Z,0.51
2019-03-30T01:46:21.652Z,0.51
2019-03-30T01:48:51.791Z,0.47
2019-03-30T01:51:21.305Z,0.47
2019-03-30T01:53:51.374Z,0.39
2019-03-30T01:56:20.945Z,0.39
2019-03-30T01:58:51.105Z,0.33
2019-03-30T02:01:20.605Z,0.33
2019-03-30T02:03:50.098Z,0.48
2019-03-30T02:06:19.576Z,0.37
2019-03-30T02:08:49.006Z,0.37
2019-03-30T02:11:19.132Z,0.35
2019-03-30T02:13:48.685Z,0.35
2019-03-30T02:16:18.198Z,0.38
2019-03-30T02:18:47.751Z,0.39
2019-03-30T02:21:17.289Z,0.38
2019-03-30T02:23:46.907Z,0.37
2019-03-30T02:26:16.414Z,0.26
2019-03-30T02:28:46.046Z,0.26
2019-03-30T02:31:15.475Z,0.26
2019-03-30T02:33:44.980Z,0.27
2019-03-30T02:36:14.561Z,0.27
2019-03-30T02:38:43.999Z,0.25
2019-03-30T02:41:15.516Z,0.23
2019-03-30T02:43:44.969Z,0.23
2019-03-30T02:46:14.440Z,0.18
2019-03-30T02:48:43.868Z,0.19
2019-03-30T02:51:13.966Z,0.23
2019-03-30T02:53:43.388Z,0.21
2019-03-30T02:56:12.886Z,0.14
2019-03-30T02:58:42.320Z,0.05
2019-03-30T03:01:11.796Z,0.05
2019-03-30T03:03:42.937Z,0.02
2019-03-30T03:06:12.452Z,0.00
2019-03-30T03:08:42.007Z,-0.03
2019-03-30T03:11:11.511Z,-0.06
2019-03-30T03:13:40.990Z,-0.06
2019-03-30T03:16:12.463Z,-0.05
2019-03-30T03:18:42.066Z,-0.08
2019-03-30T03:21:11.678Z,-0.08
2019-03-30T03:23:41.192Z,-0.12
2019-03-30T03:26:10.723Z,-0.14
2019-03-30T03:28:40.332Z,-0.05
2019-03-30T03:31:09.834Z,-0.12
2019-03-30T03:33:39.470Z,-0.12
2019-03-30T03:36:08.944Z,-0.10
2019-03-30T03:38:38.444Z,-0.09
2019-03-30T03:41:08.347Z,-0.08
2019-03-30T03:43:37.864Z,-0.04
2019-03-30T03:46:08.510Z,-0.07
2019-03-30T03:48:38.173Z,-0.08
2019-03-30T03:51:24.901Z,-0.17
2019-03-30T03:53:39.368Z,-0.23
2019-03-30T03:56:13.823Z,-0.31
2019-03-30T03:58:45.748Z,-0.28
2019-03-30T04:01:17.837Z,-0.21
2019-03-30T04:03:49.960Z,-0.28
2019-03-30T04:06:22.116Z,-0.31
2019-03-30T04:08:54.242Z,-0.28
2019-03-30T04:11:24.348Z,-0.31
2019-03-30T04:13:56.998Z,-0.32
2019-03-30T04:16:26.525Z,-0.32
2019-03-30T04:18:55.969Z,-0.29
2019-03-30T04:21:42.447Z,-0.31
2019-03-30T04:23:58.763Z,-0.36
2019-03-30T04:26:28.223Z,-0.32
2019-03-30T04:28:58.694Z,-0.25
2019-03-30T04:31:29.145Z,-0.27
2019-03-30T04:33:58.757Z,-0.28
2019-03-30T04:36:28.339Z,-0.26
2019-03-30T04:38:58.062Z,-0.23
2019-03-30T04:41:27.647Z,-0.20
2019-03-30T04:43:57.232Z,-0.19
2019-03-30T04:46:26.801Z,-0.16
2019-03-30T04:48:56.245Z,-0.17
2019-03-30T04:51:25.790Z,-0.08
2019-03-30T04:53:55.272Z,-0.08
2019-03-30T04:56:24.653Z,0.02
2019-03-30T04:58:54.111Z,0.09
2019-03-30T05:01:23.606Z,0.15
2019-03-30T05:03:53.242Z,0.20
2019-03-30T05:06:22.663Z,0.28
2019-03-30T05:08:53.215Z,0.33
2019-03-30T05:11:22.656Z,0.44
2019-03-30T05:13:53.175Z,0.50
2019-03-30T05:16:22.716Z,0.56
2019-03-30T05:18:52.255Z,0.64
2019-03-30T05:21:21.768Z,0.69
2019-03-30T05:23:51.201Z,0.77
2019-03-30T05:26:20.738Z,0.84
2019-03-30T05:28:51.044Z,0.90
2019-03-30T05:31:20.479Z,1.00
2019-03-30T05:33:49.962Z,1.15
2019-03-30T05:36:19.453Z,1.24
2019-03-30T05:38:49.007Z,1.35
2019-03-30T05:41:18.439Z,1.47
2019-03-30T05:43:47.906Z,1.47
2019-03-30T05:46:17.339Z,1.59
2019-03-30T05:48:46.890Z,1.59
2019-03-30T05:51:17.248Z,1.69
2019-03-30T05:53:46.810Z,1.81
2019-03-30T05:56:16.248Z,2.02
2019-03-30T05:58:46.669Z,2.02
2019-03-30T06:01:16.179Z,2.17
2019-03-30T06:03:45.831Z,2.37
2019-03-30T06:06:16.179Z,2.46
2019-03-30T06:08:45.649Z,2.48
2019-03-30T06:11:15.089Z,2.56
2019-03-30T06:13:44.531Z,2.73
2019-03-30T06:16:14.078Z,2.88
2019-03-30T06:18:43.671Z,2.99
2019-03-30T06:21:13.131Z,3.14
2019-03-30T06:23:42.664Z,3.21
2019-03-30T06:26:12.233Z,3.30
2019-03-30T06:28:41.670Z,3.43
2019-03-30T06:31:11.153Z,3.56
2019-03-30T06:33:40.599Z,3.68
2019-03-30T06:36:10.122Z,3.84
2019-03-30T06:38:39.657Z,3.89
2019-03-30T06:41:09.108Z,3.85
2019-03-30T06:43:39.742Z,3.84
2019-03-30T06:46:09.160Z,3.93
2019-03-30T06:48:38.700Z,4.00
2019-03-30T06:51:08.248Z,4.03
2019-03-30T06:53:37.988Z,4.09
2019-03-30T06:56:07.438Z,4.33
2019-03-30T06:58:36.895Z,4.48
2019-03-30T07:01:06.442Z,4.52
2019-03-30T07:03:36.114Z,4.55
2019-03-30T07:06:05.929Z,4.69
2019-03-30T07:08:37.289Z,4.74
2019-03-30T07:11:20.650Z,4.79
2019-03-30T07:13:40.264Z,4.83
2019-03-30T07:16:10.945Z,4.86
2019-03-30T07:18:42.749Z,4.96
2019-03-30T07:21:12.441Z,5.07
2019-03-30T07:23:41.871Z,5.17
2019-03-30T07:26:13.522Z,5.25
2019-03-30T07:28:47.243Z,5.40
2019-03-30T07:31:16.937Z,5.47
2019-03-30T07:33:46.499Z,5.59
2019-03-30T07:36:17.119Z,5.79
2019-03-30T07:38:47.675Z,5.90
2019-03-30T07:41:17.494Z,6.04
2019-03-30T07:43:48.024Z,6.13
2019-03-30T07:46:19.605Z,6.16
2019-03-30T07:48:51.763Z,6.16
2019-03-30T07:51:21.267Z,6.16
2019-03-30T07:53:51.056Z,6.17
2019-03-30T07:56:23.537Z,6.25
2019-03-30T07:58:54.439Z,6.39
2019-03-30T08:01:23.904Z,6.58
2019-03-30T08:03:53.466Z,6.79
2019-03-30T08:06:23.084Z,7.02
2019-03-30T08:08:53.570Z,7.28
2019-03-30T08:11:23.332Z,7.50
2019-03-30T08:13:52.818Z,7.63
2019-03-30T08:16:22.289Z,7.80
2019-03-30T08:18:51.734Z,8.06
2019-03-30T08:21:21.342Z,8.28
2019-03-30T08:23:50.882Z,8.50
2019-03-30T08:26:20.407Z,8.67
2019-03-30T08:28:50.907Z,8.87
2019-03-30T08:31:20.591Z,9.05
2019-03-30T08:33:50.211Z,9.27
2019-03-30T08:36:19.756Z,9.53
2019-03-30T08:38:49.314Z,9.78
2019-03-30T08:41:18.995Z,9.95
2019-03-30T08:43:48.414Z,10.10
2019-03-30T08:46:17.877Z,10.17
2019-03-30T08:48:47.362Z,10.29
2019-03-30T08:51:16.977Z,10.38
2019-03-30T08:53:54.538Z,10.48
2019-03-30T08:56:18.720Z,10.67
2019-03-30T08:58:48.351Z,10.81
2019-03-30T09:01:17.814Z,10.96
2019-03-30T09:03:47.262Z,11.05
2019-03-30T09:06:16.899Z,11.18
2019-03-30T09:08:46.550Z,11.30
2019-03-30T09:11:16.158Z,11.43
2019-03-30T09:13:45.661Z,11.56
2019-03-30T09:16:15.167Z,11.49
2019-03-30T09:18:44.669Z,11.52
2019-03-30T09:21:14.248Z,11.50
2019-03-30T09:23:43.789Z,11.63
2019-03-30T09:26:16.508Z,11.78
2019-03-30T09:28:44.794Z,11.93
2019-03-30T09:31:14.300Z,12.03
2019-03-30T09:33:43.852Z,12.09
2019-03-30T09:36:13.397Z,12.19
2019-03-30T09:38:42.815Z,12.31
2019-03-30T09:41:12.498Z,12.35
2019-03-30T09:43:41.942Z,12.40
2019-03-30T09:46:11.601Z,12.56
2019-03-30T09:48:41.184Z,12.68
2019-03-30T09:51:10.609Z,12.76
2019-03-30T09:53:40.436Z,12.77
2019-03-30T09:56:10.335Z,12.88
2019-03-30T09:58:40.090Z,13.00
2019-03-30T10:01:09.516Z,13.08
2019-03-30T10:03:39.069Z,13.23
2019-03-30T10:06:08.572Z,13.33
2019-03-30T10:08:38.107Z,13.39
2019-03-30T10:11:07.676Z,13.44
2019-03-30T10:13:37.129Z,13.40
2019-03-30T10:16:06.628Z,13.46
2019-03-30T10:18:37.188Z,13.52
2019-03-30T10:21:06.795Z,13.60
2019-03-30T10:23:37.203Z,13.78
2019-03-30T10:26:06.695Z,13.93
2019-03-30T10:28:36.210Z,14.04
2019-03-30T10:31:05.637Z,14.24
2019-03-30T10:33:35.188Z,14.33
2019-03-30T10:36:04.671Z,14.31
2019-03-30T10:38:34.135Z,14.40
2019-03-30T10:41:03.740Z,14.38
2019-03-30T10:43:33.404Z,14.58
2019-03-30T10:46:03.078Z,14.73
2019-03-30T10:48:33.760Z,14.89
2019-03-30T10:51:03.217Z,15.18
2019-03-30T10:53:33.859Z,15.47
2019-03-30T10:56:04.962Z,15.84
2019-03-30T10:58:34.555Z,16.08
2019-03-30T11:01:04.082Z,16.23
2019-03-30T11:03:33.678Z,16.55
2019-03-30T11:06:03.243Z,16.96
2019-03-30T11:08:32.757Z,17.42
2019-03-30T11:11:02.327Z,17.60
2019-03-30T11:13:31.810Z,17.99
2019-03-30T11:16:01.379Z,18.30
2019-03-30T11:18:30.814Z,18.14
2019-03-30T11:21:00.458Z,18.27
2019-03-30T11:23:29.947Z,18.13
2019-03-30T11:25:59.460Z,18.59
2019-03-30T11:28:28.965Z,18.68
2019-03-30T11:30:58.543Z,19.15
2019-03-30T11:33:27.949Z,19.67
2019-03-30T11:35:57.402Z,20.06
2019-03-30T11:38:26.892Z,20.58
2019-03-30T11:40:56.422Z,20.89
2019-03-30T11:43:25.853Z,21.49
2019-03-30T11:45:55.287Z,21.84
2019-03-30T11:48:24.945Z,21.78
2019-03-30T11:50:54.450Z,22.49
2019-03-30T11:53:23.901Z,23.01
2019-03-30T11:55:53.847Z,24.04
2019-03-30T11:58:23.614Z,24.26
2019-03-30T12:00:53.303Z,24.23
2019-03-30T12:03:22.832Z,24.16
2019-03-30T12:05:52.267Z,24.26
2019-03-30T12:08:21.778Z,24.57
2019-03-30T12:10:51.265Z,25.15
2019-03-30T12:13:20.690Z,25.18
2019-03-30T12:15:50.225Z,25.38
2019-03-30T12:18:19.798Z,25.23
2019-03-30T12:20:49.272Z,25.18
2019-03-30T12:23:18.761Z,25.82
2019-03-30T12:25:50.200Z,24.82
2019-03-30T12:28:20.551Z,24.28
2019-03-30T12:30:50.053Z,24.88
2019-03-30T12:33:20.491Z,25.53
2019-03-30T12:35:50.063Z,26.28
2019-03-30T12:38:19.647Z,26.96
2019-03-30T12:40:49.105Z,27.52
2019-03-30T12:43:18.642Z,27.95
2019-03-30T12:45:48.098Z,27.77
2019-03-30T12:48:17.668Z,27.45
2019-03-30T12:50:47.220Z,27.89
2019-03-30T12:53:16.806Z,28.63
2019-03-30T12:55:49.642Z,29.02
2019-03-30T12:58:18.693Z,28.83
2019-03-30T13:00:50.804Z,28.09
2019-03-30T13:03:20.365Z,28.00
2019-03-30T13:05:49.914Z,27.76
2019-03-30T13:08:19.508Z,27.14
2019-03-30T13:10:48.958Z,27.72
2019-03-30T13:13:19.450Z,28.23
2019-03-30T13:15:49.039Z,28.68
2019-03-30T13:18:18.546Z,29.18
2019-03-30T13:20:48.359Z,29.81
2019-03-30T13:23:17.902Z,30.27
2019-03-30T13:25:47.420Z,30.51
2019-03-30T13:28:16.851Z,30.80
2019-03-30T13:30:46.427Z,31.23
2019-03-30T13:33:17.400Z,31.45
2019-03-30T13:35:46.978Z,30.53
2019-03-30T13:38:16.477Z,30.50
2019-03-30T13:40:46.133Z,30.46
2019-03-30T13:43:16.567Z,30.68
2019-03-30T13:45:46.089Z,30.75
2019-03-30T13:48:15.625Z,31.27
2019-03-30T13:50:45.066Z,31.55
2019-03-30T13:53:15.576Z,31.78
2019-03-30T13:55:45.053Z,32.31
2019-03-30T13:58:16.122Z,32.15
2019-03-30T14:00:45.630Z,32.53
2019-03-30T14:03:15.188Z,33.19
2019-03-30T14:05:44.645Z,33.91
2019-03-30T14:08:14.432Z,33.43
2019-03-30T14:10:43.929Z,32.77
2019-03-30T14:13:13.481Z,31.78
2019-03-30T14:15:43.228Z,31.63
2019-03-30T14:18:12.785Z,32.56
2019-03-30T14:20:42.293Z,33.11
2019-03-30T14:23:11.947Z,33.47
2019-03-30T14:25:41.437Z,33.76
2019-03-30T14:28:10.922Z,33.74
2019-03-30T14:30:40.361Z,33.53
2019-03-30T14:33:09.964Z,33.84
2019-03-30T14:35:39.464Z,33.60
2019-03-30T14:38:08.898Z,33.63
2019-03-30T14:40:38.397Z,34.20
2019-03-30T14:43:07.908Z,34.04
2019-03-30T14:45:38.337Z,34.03
2019-03-30T14:48:07.851Z,34.53
2019-03-30T14:50:37.341Z,33.74
2019-03-30T14:53:07.771Z,33.96
2019-03-30T14:55:39.621Z,34.74
2019-03-30T14:58:08.414Z,35.09
2019-03-30T15:00:38.064Z,35.14
2019-03-30T15:03:07.727Z,35.50
2019-03-30T15:05:37.250Z,36.14
2019-03-30T15:08:07.808Z,36.07
2019-03-30T15:10:37.302Z,35.24
2019-03-30T15:13:06.941Z,34.46
2019-03-30T15:15:36.433Z,34.61
2019-03-30T15:18:06.058Z,35.32
2019-03-30T15:20:35.483Z,35.44
2019-03-30T15:23:05.023Z,33.57
2019-03-30T15:25:34.468Z,33.37
2019-03-30T15:28:04.095Z,32.37
2019-03-30T15:30:33.600Z,33.00
2019-03-30T15:33:03.613Z,33.24
2019-03-30T15:35:33.237Z,33.46
2019-03-30T15:38:03.763Z,33.13
2019-03-30T15:40:34.224Z,32.28
2019-03-30T15:43:03.727Z,32.17
2019-03-30T15:45:33.224Z,31.22
2019-03-30T15:48:02.650Z,30.16
2019-03-30T15:50:35.302Z,29.59
2019-03-30T15:53:04.888Z,28.97
2019-03-30T15:55:34.397Z,28.83
2019-03-30T15:58:03.923Z,28.55
2019-03-30T16:00:33.359Z,28.67
2019-03-30T16:03:02.919Z,29.27
2019-03-30T16:05:32.432Z,29.71
2019-03-30T16:08:02.000Z,29.44
2019-03-30T16:10:31.519Z,28.98
2019-03-30T16:13:01.330Z,28.85
2019-03-30T16:15:30.802Z,28.74
2019-03-30T16:18:00.289Z,28.62
2019-03-30T16:20:29.898Z,27.72
2019-03-30T16:23:00.327Z,26.88
2019-03-30T16:25:29.965Z,26.33
2019-03-30T16:27:59.460Z,25.76
2019-03-30T16:30:28.943Z,25.36
2019-03-30T16:32:58.524Z,24.84
2019-03-30T16:35:28.988Z,24.33
2019-03-30T16:37:58.484Z,23.67
2019-03-30T16:40:28.076Z,22.98
2019-03-30T16:42:57.513Z,22.35
2019-03-30T16:45:27.264Z,21.71
2019-03-30T16:47:56.723Z,21.02
2019-03-30T16:50:26.176Z,20.44
2019-03-30T16:52:55.664Z,19.93
2019-03-30T16:55:25.255Z,19.53
2019-03-30T16:57:55.674Z,19.08
2019-03-30T17:00:25.873Z,18.67
2019-03-30T17:02:55.412Z,18.26
2019-03-30T17:05:24.928Z,17.89
2019-03-30T17:07:54.346Z,17.57
2019-03-30T17:10:23.893Z,17.29
2019-03-30T17:12:53.339Z,17.10
2019-03-30T17:15:22.796Z,16.96
2019-03-30T17:17:52.222Z,16.80
2019-03-30T17:20:21.674Z,16.52
2019-03-30T17:22:51.104Z,16.30
2019-03-30T17:25:20.551Z,16.02
2019-03-30T17:27:58.011Z,15.82
2019-03-30T17:30:21.381Z,15.63
2019-03-30T17:32:50.810Z,15.40
2019-03-30T17:35:20.470Z,15.17
2019-03-30T17:37:49.964Z,14.99
2019-03-30T17:40:19.514Z,14.78
2019-03-30T17:42:49.072Z,14.60
2019-03-30T17:45:18.713Z,14.45
2019-03-30T17:47:48.193Z,14.23
2019-03-30T17:50:18.233Z,14.02
2019-03-30T17:52:47.761Z,13.80
2019-03-30T17:55:17.386Z,13.66
2019-03-30T17:57:46.913Z,13.45
2019-03-30T18:00:18.437Z,13.31
2019-03-30T18:02:48.097Z,13.26
2019-03-30T18:05:17.519Z,13.16
2019-03-30T18:07:48.125Z,13.04
2019-03-30T18:10:18.024Z,12.90
2019-03-30T18:12:47.542Z,12.71
2019-03-30T18:15:17.251Z,12.58
2019-03-30T18:17:46.727Z,12.47
2019-03-30T18:20:16.762Z,12.40
2019-03-30T18:22:46.499Z,12.33
2019-03-30T18:25:15.982Z,12.28
2019-03-30T18:27:45.621Z,12.16
2019-03-30T18:30:15.480Z,12.03
2019-03-30T18:32:45.011Z,11.93
2019-03-30T18:35:14.772Z,11.83
2019-03-30T18:37:44.630Z,11.75
2019-03-30T18:40:17.088Z,11.74
2019-03-30T18:42:46.932Z,11.61
2019-03-30T18:45:19.410Z,11.45
2019-03-30T18:47:49.299Z,11.30
2019-03-30T18:50:19.773Z,11.20
2019-03-30T18:52:53.314Z,11.07
2019-03-30T18:55:25.691Z,10.95
2019-03-30T18:57:55.221Z,10.82
2019-03-30T19:00:27.772Z,10.73
2019-03-30T19:02:57.282Z,10.69
2019-03-30T19:05:26.840Z,10.61
2019-03-30T19:07:56.559Z,10.53
2019-03-30T19:10:25.987Z,10.41
2019-03-30T19:12:56.557Z,10.27
2019-03-30T19:15:26.130Z,10.11
2019-03-30T19:17:55.807Z,10.05
2019-03-30T19:20:25.382Z,9.95
2019-03-30T19:22:54.920Z,9.80
2019-03-30T19:25:24.422Z,9.76
2019-03-30T19:27:53.888Z,9.63
2019-03-30T19:30:23.671Z,9.57
2019-03-30T19:32:53.544Z,9.55
2019-03-30T19:35:23.008Z,9.52
2019-03-30T19:37:52.473Z,9.47
2019-03-30T19:40:21.982Z,9.48
2019-03-30T19:42:51.474Z,9.45
2019-03-30T19:45:21.028Z,9.40
2019-03-30T19:47:51.617Z,9.36
2019-03-30T19:50:23.357Z,9.30
2019-03-30T19:52:52.845Z,9.24
2019-03-30T19:55:23.316Z,9.23
2019-03-30T19:57:52.822Z,9.18
2019-03-30T20:00:23.364Z,9.20
2019-03-30T20:02:52.941Z,9.29
2019-03-30T20:05:22.577Z,9.36
2019-03-30T20:07:52.227Z,9.43
2019-03-30T20:10:22.887Z,9.50
2019-03-30T20:12:52.375Z,9.57
2019-03-30T20:15:21.919Z,9.60
2019-03-30T20:17:51.411Z,9.62
2019-03-30T20:20:20.962Z,9.66
2019-03-30T20:22:52.573Z,9.71
2019-03-30T20:25:25.782Z,9.74
2019-03-30T20:27:53.335Z,9.76
2019-03-30T20:30:24.539Z,9.77
2019-03-30T20:32:54.133Z,9.81
2019-03-30T20:35:24.634Z,9.73
2019-03-30T20:37:54.187Z,9.59
2019-03-30T20:40:25.819Z,9.49
2019-03-30T20:42:55.306Z,9.37
2019-03-30T20:45:26.186Z,9.28
2019-03-30T20:47:55.592Z,9.21
2019-03-30T20:50:25.106Z,9.09
2019-03-30T20:52:54.707Z,8.96
2019-03-30T20:55:24.220Z,8.85
2019-03-30T20:57:54.683Z,8.79
2019-03-30T21:00:24.294Z,8.74
2019-03-30T21:02:53.791Z,8.63
2019-03-30T21:05:24.408Z,8.54
2019-03-30T21:07:53.908Z,8.46
2019-03-30T21:10:23.545Z,8.37
2019-03-30T21:12:53.052Z,8.33
2019-03-30T21:15:22.595Z,8.36
2019-03-30T21:17:53.800Z,8.41
2019-03-30T21:20:23.482Z,8.51
2019-03-30T21:22:53.001Z,8.60
2019-03-30T21:25:22.508Z,8.69
2019-03-30T21:27:52.124Z,8.73
2019-03-30T21:30:22.501Z,8.78
2019-03-30T21:32:52.170Z,8.85
2019-03-30T21:35:21.685Z,8.92
2019-03-30T21:37:51.099Z,8.94
2019-03-30T21:40:20.539Z,8.86
2019-03-30T21:42:50.095Z,8.83
2019-03-30T21:45:19.649Z,8.75
2019-03-30T21:47:49.187Z,8.66
2019-03-30T21:50:20.147Z,8.57
2019-03-30T21:52:49.688Z,8.49
2019-03-30T21:55:19.148Z,8.38
2019-03-30T21:57:48.745Z,8.30
2019-03-30T22:00:30.104Z,8.22
2019-03-30T22:02:59.622Z,8.16
2019-03-30T22:05:29.492Z,8.04
2019-03-30T22:07:59.220Z,7.93
2019-03-30T22:10:28.778Z,7.80
2019-03-30T22:12:58.353Z,7.67
2019-03-30T22:15:29.111Z,7.63
2019-03-30T22:17:58.716Z,7.63
2019-03-30T22:20:28.521Z,7.59
2019-03-30T22:22:58.019Z,7.52
2019-03-30T22:25:29.487Z,7.55
2019-03-30T22:27:58.937Z,7.54
2019-03-30T22:30:28.426Z,7.58
2019-03-30T22:32:57.894Z,7.60
2019-03-30T22:35:27.376Z,7.50
2019-03-30T22:37:56.815Z,7.43
2019-03-30T22:40:26.255Z,7.37
2019-03-30T22:42:55.810Z,7.37
2019-03-30T22:45:25.218Z,7.35
2019-03-30T22:47:54.899Z,7.35
2019-03-30T22:50:24.677Z,7.32
2019-03-30T22:52:54.089Z,7.38
2019-03-30T22:55:25.140Z,7.39
2019-03-30T22:57:54.654Z,7.41
2019-03-30T23:00:38.843Z,7.43
2019-03-30T23:03:09.959Z,7.35
2019-03-30T23:05:39.458Z,7.28
2019-03-30T23:08:10.155Z,7.16
2019-03-30T23:10:41.252Z,7.07
2019-03-30T23:13:10.919Z,6.98
2019-03-30T23:15:40.502Z,6.87
2019-03-30T23:18:10.082Z,6.72
2019-03-30T23:20:39.614Z,6.63
2019-03-30T23:23:09.038Z,6.56
2019-03-30T23:25:38.527Z,6.46
2019-03-30T23:28:08.117Z,6.32
2019-03-30T23:30:37.681Z,6.28
2019-03-30T23:33:07.286Z,6.32
2019-03-30T23:35:37.810Z,6.30
2019-03-30T23:38:07.348Z,6.23
2019-03-30T23:40:36.839Z,6.15
2019-03-30T23:43:06.702Z,6.09
2019-03-30T23:45:36.339Z,5.99
2019-03-30T23:48:05.989Z,5.97
2019-03-30T23:50:36.470Z,5.79
2019-03-30T23:53:07.543Z,5.64
2019-03-30T23:55:37.407Z,5.64
2019-03-30T23:58:06.946Z,5.51
